createdAt,value
2022-12-06T00:01:32.167Z,3.74
2022-12-06T00:04:03.921Z,3.74
2022-12-06T00:06:33.958Z,3.74
2022-12-06T00:09:01.985Z,3.76
2022-12-06T00:11:32.371Z,3.77
2022-12-06T00:14:03.086Z,3.80
2022-12-06T00:16:32.282Z,3.86
2022-12-06T00:19:01.162Z,3.88
2022-12-06T00:21:36.806Z,3.91
2022-12-06T00:24:12.087Z,3.91
2022-12-06T00:26:42.809Z,3.93
2022-12-06T00:29:18.957Z,3.87
2022-12-06T00:31:47.315Z,3.85
2022-12-06T00:34:15.407Z,3.89
2022-12-06T00:36:43.781Z,3.92
2022-12-06T00:39:14.855Z,3.92
2022-12-06T00:41:43.251Z,3.90
2022-12-06T00:44:11.896Z,3.92
2022-12-06T00:46:40.070Z,3.93
2022-12-06T00:49:09.901Z,3.95
2022-12-06T00:51:38.875Z,3.95
2022-12-06T00:54:07.570Z,3.95
2022-12-06T00:56:36.787Z,3.94
2022-12-06T00:59:06.371Z,3.96
2022-12-06T01:01:36.467Z,3.96
2022-12-06T01:04:06.823Z,3.90
2022-12-06T01:06:37.034Z,3.90
2022-12-06T01:09:09.587Z,3.88
2022-12-06T01:11:37.848Z,3.85
2022-12-06T01:14:06.333Z,3.84
2022-12-06T01:16:35.345Z,3.89
2022-12-06T01:19:05.604Z,3.94
2022-12-06T01:21:33.937Z,4.01
2022-12-06T01:24:01.839Z,4.04
2022-12-06T01:26:32.490Z,4.00
2022-12-06T01:29:01.385Z,3.95
2022-12-06T01:31:37.283Z,3.87
2022-12-06T01:34:15.873Z,3.81
2022-12-06T01:36:45.721Z,3.78
2022-12-06T01:39:13.922Z,3.80
2022-12-06T01:41:42.102Z,3.80
2022-12-06T01:44:38.023Z,3.84
2022-12-06T01:47:11.728Z,3.88
2022-12-06T01:49:41.560Z,3.86
2022-12-06T01:52:13.898Z,3.80
2022-12-06T01:54:42.261Z,3.74
2022-12-06T01:57:13.475Z,3.73
2022-12-06T01:59:42.086Z,3.74
2022-12-06T02:02:10.278Z,3.77
2022-12-06T02:04:39.402Z,3.82
2022-12-06T02:07:08.804Z,3.87
2022-12-06T02:09:38.312Z,3.88
2022-12-06T02:12:12.603Z,3.91
2022-12-06T02:14:43.243Z,3.99
2022-12-06T02:17:35.614Z,4.01
2022-12-06T02:20:29.474Z,3.99
2022-12-06T02:23:31.857Z,4.08
2022-12-06T02:26:14.470Z,4.09
2022-12-06T02:29:22.884Z,4.03
2022-12-06T02:32:17.193Z,4.00
2022-12-06T02:35:09.615Z,4.05
2022-12-06T02:37:47.843Z,4.12
2022-12-06T02:40:25.527Z,4.08
2022-12-06T02:43:08.568Z,4.10
2022-12-06T02:45:43.117Z,4.20
2022-12-06T02:48:13.891Z,4.15
2022-12-06T02:50:52.012Z,4.21
2022-12-06T02:53:22.542Z,4.28
2022-12-06T02:55:51.994Z,4.33
2022-12-06T02:58:19.830Z,4.33
2022-12-06T03:00:56.207Z,4.30
2022-12-06T03:03:42.841Z,4.31
2022-12-06T03:06:32.599Z,4.37
2022-12-06T03:09:18.323Z,4.40
2022-12-06T03:11:55.447Z,4.43
2022-12-06T03:14:27.091Z,4.46
2022-12-06T03:17:07.829Z,4.47
2022-12-06T03:19:40.959Z,4.50
2022-12-06T03:22:23.958Z,4.51
2022-12-06T03:24:52.876Z,4.44
2022-12-06T03:27:23.388Z,4.35
2022-12-06T03:29:55.781Z,4.30
2022-12-06T03:32:29.683Z,4.23
2022-12-06T03:35:02.177Z,4.20
2022-12-06T03:37:32.786Z,4.24
2022-12-06T03:40:14.899Z,4.21
2022-12-06T03:42:43.068Z,4.23
2022-12-06T03:45:12.549Z,4.25
2022-12-06T03:48:08.775Z,4.22
2022-12-06T03:50:45.955Z,4.24
2022-12-06T03:53:17.757Z,4.24
2022-12-06T03:55:46.033Z,4.24
2022-12-06T03:58:14.518Z,4.21
2022-12-06T04:00:42.385Z,4.24
2022-12-06T04:03:10.252Z,4.24
2022-12-06T04:05:38.125Z,4.21
2022-12-06T04:08:06.124Z,4.22
2022-12-06T04:10:33.949Z,4.18
2022-12-06T04:13:01.941Z,4.16
2022-12-06T04:15:38.773Z,4.11
2022-12-06T04:18:13.728Z,4.16
2022-12-06T04:21:07.814Z,4.17
2022-12-06T04:23:38.574Z,4.20
2022-12-06T04:26:09.786Z,4.20
2022-12-06T04:28:56.106Z,4.23
2022-12-06T04:31:43.096Z,4.19
2022-12-06T04:34:30.585Z,4.15
2022-12-06T04:37:17.842Z,4.14
2022-12-06T04:39:46.043Z,4.16
2022-12-06T04:42:32.837Z,4.16
2022-12-06T04:45:00.820Z,4.16
2022-12-06T04:47:29.353Z,4.15
2022-12-06T04:49:57.424Z,4.16
2022-12-06T04:52:25.649Z,4.15
2022-12-06T04:54:53.523Z,4.17
2022-12-06T04:57:21.391Z,4.17
2022-12-06T04:59:51.204Z,4.19
2022-12-06T05:02:19.168Z,4.17
2022-12-06T05:04:47.451Z,4.15
2022-12-06T05:07:15.313Z,4.17
2022-12-06T05:09:43.282Z,4.21
2022-12-06T05:12:11.149Z,4.14
2022-12-06T05:14:38.921Z,4.13
2022-12-06T05:17:06.995Z,4.14
2022-12-06T05:19:34.923Z,4.14
2022-12-06T05:22:02.669Z,4.13
2022-12-06T05:24:30.473Z,4.12
2022-12-06T05:26:58.256Z,4.15
2022-12-06T05:29:26.119Z,4.18
2022-12-06T05:31:53.958Z,4.15
2022-12-06T05:34:21.965Z,4.13
2022-12-06T05:36:49.787Z,4.13
2022-12-06T05:39:17.692Z,4.13
2022-12-06T05:41:45.667Z,4.12
2022-12-06T05:44:13.631Z,4.13
2022-12-06T05:46:41.705Z,4.11
2022-12-06T05:49:09.751Z,4.06
2022-12-06T05:51:37.687Z,4.04
2022-12-06T05:54:06.771Z,4.09
2022-12-06T05:56:34.920Z,4.10
2022-12-06T05:59:03.607Z,4.11
2022-12-06T06:01:32.089Z,4.12
2022-12-06T06:03:59.951Z,4.07
2022-12-06T06:06:28.578Z,4.04
2022-12-06T06:08:56.396Z,4.02
2022-12-06T06:11:24.359Z,4.02
2022-12-06T06:13:54.602Z,4.02
2022-12-06T06:16:22.850Z,4.07
2022-12-06T06:18:50.953Z,4.05
2022-12-06T06:21:18.925Z,4.10
2022-12-06T06:23:46.687Z,4.13
2022-12-06T06:26:14.548Z,4.11
2022-12-06T06:28:42.626Z,4.08
2022-12-06T06:31:10.596Z,4.08
2022-12-06T06:33:38.505Z,4.05
2022-12-06T06:36:06.942Z,4.08
2022-12-06T06:38:34.917Z,4.09
2022-12-06T06:41:04.319Z,4.10
2022-12-06T06:43:33.109Z,4.10
2022-12-06T06:46:04.893Z,4.01
2022-12-06T06:48:35.614Z,3.92
2022-12-06T06:51:09.791Z,3.87
2022-12-06T06:53:38.493Z,3.88
2022-12-06T06:56:07.604Z,3.87
2022-12-06T06:58:35.470Z,3.82
2022-12-06T07:01:05.912Z,3.80
2022-12-06T07:03:35.208Z,3.82
2022-12-06T07:06:07.878Z,3.78
2022-12-06T07:08:36.268Z,3.74
2022-12-06T07:11:04.778Z,3.74
2022-12-06T07:13:32.960Z,3.78
2022-12-06T07:16:07.952Z,3.78
2022-12-06T07:18:35.810Z,3.78
2022-12-06T07:21:06.448Z,3.77
2022-12-06T07:23:36.161Z,3.80
2022-12-06T07:26:07.829Z,3.83
2022-12-06T07:28:40.462Z,3.84
2022-12-06T07:31:11.113Z,3.83
2022-12-06T07:33:40.532Z,3.81
2022-12-06T07:36:12.411Z,3.70
2022-12-06T07:38:49.730Z,3.68
2022-12-06T07:41:37.466Z,3.67
2022-12-06T07:44:33.745Z,3.69
2022-12-06T07:47:02.132Z,3.69
2022-12-06T07:49:30.203Z,3.63
2022-12-06T07:51:58.380Z,3.60
2022-12-06T07:54:26.546Z,3.62
2022-12-06T07:56:56.520Z,3.59
2022-12-06T07:59:25.050Z,3.56
2022-12-06T08:01:53.643Z,3.55
2022-12-06T08:04:22.572Z,3.53
2022-12-06T08:06:50.581Z,3.53
2022-12-06T08:09:18.665Z,3.51
2022-12-06T08:11:46.581Z,3.48
2022-12-06T08:14:16.048Z,3.44
2022-12-06T08:16:43.917Z,3.40
2022-12-06T08:19:12.087Z,3.40
2022-12-06T08:21:40.051Z,3.38
2022-12-06T08:24:08.021Z,3.35
2022-12-06T08:26:36.608Z,3.35
2022-12-06T08:29:04.433Z,3.39
2022-12-06T08:31:34.853Z,3.38
2022-12-06T08:34:03.963Z,3.40
2022-12-06T08:36:31.871Z,3.53
2022-12-06T08:39:00.699Z,3.63
2022-12-06T08:41:47.542Z,3.68
2022-12-06T08:44:16.585Z,3.75
2022-12-06T08:46:45.105Z,3.86
2022-12-06T08:49:15.784Z,3.91
2022-12-06T08:51:43.812Z,3.95
2022-12-06T08:54:16.064Z,3.92
2022-12-06T08:56:44.405Z,3.86
2022-12-06T08:59:12.849Z,3.86
2022-12-06T09:01:42.013Z,3.85
2022-12-06T09:04:11.256Z,3.82
2022-12-06T09:06:41.370Z,3.82
2022-12-06T09:09:11.118Z,3.82
2022-12-06T09:11:40.647Z,3.86
2022-12-06T09:14:10.610Z,3.91
2022-12-06T09:16:41.579Z,3.89
2022-12-06T09:19:10.984Z,3.85
2022-12-06T09:21:43.053Z,3.83
2022-12-06T09:24:17.155Z,3.84
2022-12-06T09:26:45.894Z,3.84
2022-12-06T09:29:15.403Z,3.84
2022-12-06T09:31:43.568Z,3.86
2022-12-06T09:34:12.936Z,3.85
2022-12-06T09:36:46.550Z,3.85
2022-12-06T09:39:23.512Z,3.87
2022-12-06T09:41:57.633Z,3.89
2022-12-06T09:45:01.236Z,3.91
2022-12-06T09:47:43.142Z,3.92
2022-12-06T09:50:24.120Z,3.89
2022-12-06T09:52:54.700Z,3.92
2022-12-06T09:55:29.527Z,3.89
2022-12-06T09:58:24.635Z,3.86
2022-12-06T10:01:18.097Z,3.81
2022-12-06T10:03:54.920Z,3.75
2022-12-06T10:06:26.798Z,3.74
2022-12-06T10:09:03.697Z,3.76
2022-12-06T10:11:54.130Z,3.66
2022-12-06T10:14:40.964Z,3.65
2022-12-06T10:17:11.907Z,3.65
2022-12-06T10:20:07.529Z,3.67
2022-12-06T10:22:35.287Z,3.75
2022-12-06T10:25:08.482Z,3.77
2022-12-06T10:27:46.818Z,3.77
2022-12-06T10:30:17.024Z,3.74
2022-12-06T10:33:09.821Z,3.69
2022-12-06T10:35:42.548Z,3.62
2022-12-06T10:38:20.282Z,3.61
2022-12-06T10:41:14.951Z,3.59
2022-12-06T10:44:05.340Z,3.56
2022-12-06T10:47:05.291Z,3.55
2022-12-06T10:49:41.854Z,3.52
2022-12-06T10:52:40.828Z,3.51
2022-12-06T10:55:12.177Z,3.48
2022-12-06T10:58:08.220Z,3.47
2022-12-06T11:01:00.741Z,3.50
2022-12-06T11:03:56.215Z,3.53
2022-12-06T11:06:43.613Z,3.58
2022-12-06T11:09:31.638Z,3.62
2022-12-06T11:12:00.023Z,3.65
2022-12-06T11:14:46.728Z,3.62
2022-12-06T11:17:16.978Z,3.64
2022-12-06T11:19:50.490Z,3.58
2022-12-06T11:22:45.995Z,3.54
2022-12-06T11:25:23.560Z,3.57
2022-12-06T11:28:05.446Z,3.60
2022-12-06T11:30:33.847Z,3.60
2022-12-06T11:33:03.661Z,3.58
2022-12-06T11:35:31.818Z,3.54
2022-12-06T11:38:03.533Z,3.52
2022-12-06T11:40:35.987Z,3.56
2022-12-06T11:43:09.352Z,3.63
2022-12-06T11:45:41.166Z,3.70
2022-12-06T11:48:23.008Z,3.71
2022-12-06T11:50:53.328Z,3.69
2022-12-06T11:53:55.500Z,3.66
2022-12-06T11:56:37.190Z,3.73
2022-12-06T11:59:17.208Z,3.69
2022-12-06T12:01:48.950Z,3.67
2022-12-06T12:04:36.260Z,3.59
2022-12-06T12:07:13.931Z,3.54
2022-12-06T12:09:56.338Z,3.48
2022-12-06T12:12:59.668Z,3.47
2022-12-06T12:15:28.325Z,3.52
2022-12-06T12:17:58.693Z,3.54
2022-12-06T12:20:39.640Z,3.60
2022-12-06T12:23:18.171Z,3.60
2022-12-06T12:26:07.950Z,3.54
2022-12-06T12:28:38.546Z,3.47
2022-12-06T12:31:20.344Z,3.46
2022-12-06T12:34:08.868Z,3.51
2022-12-06T12:36:36.772Z,3.47
2022-12-06T12:39:04.739Z,3.45
2022-12-06T12:41:44.054Z,3.41
2022-12-06T12:44:40.015Z,3.38
2022-12-06T12:47:18.988Z,3.36
2022-12-06T12:50:13.925Z,3.41
2022-12-06T12:52:42.713Z,3.47
2022-12-06T12:55:13.382Z,3.45
2022-12-06T12:57:43.884Z,3.44
2022-12-06T13:00:20.736Z,3.51
2022-12-06T13:02:56.936Z,3.55
2022-12-06T13:05:34.363Z,3.54
2022-12-06T13:08:15.494Z,3.49
2022-12-06T13:10:47.252Z,3.46
2022-12-06T13:13:50.139Z,3.45
2022-12-06T13:16:34.189Z,3.38
2022-12-06T13:19:03.490Z,3.36
2022-12-06T13:21:38.029Z,3.37
2022-12-06T13:24:11.281Z,3.33
2022-12-06T13:26:44.503Z,3.36
2022-12-06T13:29:24.052Z,3.43
2022-12-06T13:31:54.884Z,3.46
2022-12-06T13:34:37.402Z,3.46
2022-12-06T13:37:26.345Z,3.51
2022-12-06T13:39:54.519Z,3.51
2022-12-06T13:42:36.695Z,3.51
2022-12-06T13:45:36.579Z,3.47
2022-12-06T13:48:24.589Z,3.47
2022-12-06T13:51:03.018Z,3.45
2022-12-06T13:53:34.164Z,3.43
2022-12-06T13:56:20.851Z,3.40
2022-12-06T13:58:52.432Z,3.34
2022-12-06T14:01:35.528Z,3.33
2022-12-06T14:09:45.661Z,3.07
2022-12-06T14:12:19.503Z,3.00
2022-12-06T14:14:58.891Z,2.95
2022-12-06T14:20:29.121Z,2.84
2022-12-06T14:22:57.827Z,2.77
2022-12-06T14:25:29.865Z,2.71
2022-12-06T14:28:12.967Z,2.67
2022-12-06T14:30:42.106Z,2.64
2022-12-06T14:33:38.830Z,2.62
2022-12-06T14:36:17.340Z,2.65
2022-12-06T14:38:52.882Z,2.67
2022-12-06T14:41:40.207Z,2.68
2022-12-06T14:44:15.543Z,2.68
2022-12-06T14:46:46.576Z,2.74
2022-12-06T14:49:36.997Z,2.73
2022-12-06T14:52:20.226Z,2.70
2022-12-06T14:54:48.613Z,2.71
2022-12-06T14:57:27.431Z,2.67
2022-12-06T15:00:26.268Z,2.69
2022-12-06T15:03:00.230Z,2.66
2022-12-06T15:05:52.319Z,2.61
2022-12-06T15:08:26.697Z,2.57
2022-12-06T15:10:55.682Z,2.50
2022-12-06T15:13:24.682Z,2.51
2022-12-06T15:16:10.058Z,2.50
2022-12-06T15:18:40.786Z,2.50
2022-12-06T15:21:13.971Z,2.55
2022-12-06T15:23:53.229Z,2.57
2022-12-06T15:26:23.465Z,2.61
2022-12-06T15:28:51.820Z,2.65
2022-12-06T15:31:27.279Z,2.68
2022-12-06T15:33:56.060Z,2.71
2022-12-06T15:36:31.146Z,2.71
2022-12-06T15:38:59.065Z,2.69
2022-12-06T15:41:29.095Z,2.65
2022-12-06T15:44:00.272Z,2.63
2022-12-06T15:46:29.866Z,2.63
2022-12-06T15:48:59.648Z,2.63
2022-12-06T15:51:29.256Z,2.67
2022-12-06T15:53:58.654Z,2.67
2022-12-06T15:56:30.237Z,2.66
2022-12-06T15:58:58.485Z,2.62
2022-12-06T16:01:28.933Z,2.56
2022-12-06T16:03:58.032Z,2.49
2022-12-06T16:06:27.822Z,2.43
2022-12-06T16:08:56.927Z,2.39
2022-12-06T16:11:27.141Z,2.37
2022-12-06T16:13:55.324Z,2.37
2022-12-06T16:16:23.608Z,2.34
2022-12-06T16:18:52.283Z,2.26
2022-12-06T16:21:29.055Z,2.20
2022-12-06T16:24:17.443Z,2.19
2022-12-06T16:26:46.244Z,2.21
2022-12-06T16:29:23.706Z,2.21
2022-12-06T16:31:53.078Z,2.16
2022-12-06T16:34:21.366Z,2.12
2022-12-06T16:37:04.318Z,2.11
2022-12-06T16:39:34.643Z,2.13
2022-12-06T16:42:04.428Z,2.20
2022-12-06T16:44:32.607Z,2.20
2022-12-06T16:47:00.630Z,2.21
2022-12-06T16:49:45.818Z,2.21
2022-12-06T16:52:15.856Z,2.23
2022-12-06T16:54:44.252Z,2.21
2022-12-06T16:57:13.447Z,2.20
2022-12-06T16:59:42.939Z,2.18
2022-12-06T17:02:27.688Z,2.17
2022-12-06T17:05:01.313Z,2.11
2022-12-06T17:07:30.212Z,2.10
2022-12-06T17:09:58.995Z,2.12
2022-12-06T17:12:27.588Z,2.15
2022-12-06T17:14:55.553Z,2.16
2022-12-06T17:17:26.053Z,2.16
2022-12-06T17:19:56.365Z,2.19
2022-12-06T17:22:24.847Z,2.22
2022-12-06T17:24:53.200Z,2.19
2022-12-06T17:27:21.544Z,2.15
2022-12-06T17:29:49.722Z,2.11
2022-12-06T17:32:18.407Z,2.11
2022-12-06T17:34:46.989Z,2.14
2022-12-06T17:37:15.161Z,2.11
2022-12-06T17:39:43.316Z,2.13
2022-12-06T17:42:31.651Z,2.15
2022-12-06T17:45:00.106Z,2.16
2022-12-06T17:47:28.756Z,2.13
2022-12-06T17:49:57.181Z,2.14
2022-12-06T17:52:25.420Z,2.14
2022-12-06T17:54:53.895Z,2.14
2022-12-06T17:57:21.808Z,2.11
2022-12-06T17:59:49.732Z,2.13
2022-12-06T18:02:24.141Z,2.14
2022-12-06T18:04:54.033Z,2.15
2022-12-06T18:07:22.348Z,2.17
2022-12-06T18:09:50.412Z,2.15
2022-12-06T18:12:18.837Z,2.16
2022-12-06T18:14:46.982Z,2.17
2022-12-06T18:17:15.154Z,2.17
2022-12-06T18:19:46.950Z,2.13
2022-12-06T18:22:15.767Z,2.07
2022-12-06T18:24:44.895Z,2.08
2022-12-06T18:27:13.886Z,2.10
2022-12-06T18:29:42.167Z,2.05
2022-12-06T18:32:10.423Z,2.00
2022-12-06T18:34:39.032Z,1.94
2022-12-06T18:37:06.864Z,1.93
2022-12-06T18:39:34.962Z,1.93
2022-12-06T18:42:03.141Z,1.90
2022-12-06T18:44:31.208Z,1.86
2022-12-06T18:46:59.085Z,1.87
2022-12-06T18:49:27.044Z,1.85
2022-12-06T18:51:55.118Z,1.82
2022-12-06T18:54:22.997Z,1.84
2022-12-06T18:56:50.852Z,1.86
2022-12-06T18:59:23.170Z,1.85
2022-12-06T19:01:54.085Z,1.84
2022-12-06T19:04:22.857Z,1.91
2022-12-06T19:06:50.841Z,1.89
2022-12-06T19:09:18.797Z,1.84
2022-12-06T19:11:46.879Z,1.86
2022-12-06T19:14:16.383Z,1.85
2022-12-06T19:16:47.413Z,1.85
2022-12-06T19:19:21.880Z,1.85
2022-12-06T19:21:51.959Z,1.82
2022-12-06T19:24:22.956Z,1.79
2022-12-06T19:26:52.402Z,1.76
2022-12-06T19:29:21.193Z,1.75
2022-12-06T19:31:49.118Z,1.70
2022-12-06T19:34:20.958Z,1.69
2022-12-06T19:36:50.788Z,1.68
2022-12-06T19:39:20.038Z,1.73
2022-12-06T19:42:06.950Z,1.74
2022-12-06T19:44:35.119Z,1.74
2022-12-06T19:47:03.502Z,1.62
2022-12-06T19:49:31.674Z,1.62
2022-12-06T19:52:00.113Z,1.62
2022-12-06T19:54:31.402Z,1.64
2022-12-06T19:57:00.849Z,1.67
2022-12-06T19:59:31.993Z,1.75
2022-12-06T20:02:00.594Z,1.76
2022-12-06T20:04:34.037Z,1.72
2022-12-06T20:07:04.891Z,1.77
2022-12-06T20:09:34.173Z,1.82
2022-12-06T20:12:04.838Z,1.80
2022-12-06T20:14:38.722Z,1.84
2022-12-06T20:17:09.999Z,1.88
2022-12-06T20:19:39.511Z,1.91
2022-12-06T20:22:07.406Z,1.94
2022-12-06T20:24:35.368Z,1.97
2022-12-06T20:27:03.273Z,1.98
2022-12-06T20:29:32.845Z,1.99
2022-12-06T20:32:01.751Z,2.00
2022-12-06T20:34:34.218Z,1.99
2022-12-06T20:37:06.102Z,1.98
2022-12-06T20:39:35.855Z,1.96
2022-12-06T20:42:07.067Z,1.96
2022-12-06T20:44:35.653Z,2.00
2022-12-06T20:47:04.501Z,1.97
2022-12-06T20:49:32.930Z,1.96
2022-12-06T20:52:02.978Z,1.94
2022-12-06T20:54:31.232Z,1.89
2022-12-06T20:56:59.388Z,1.87
2022-12-06T20:59:29.521Z,1.85
2022-12-06T21:01:57.834Z,1.81
2022-12-06T21:04:26.902Z,1.80
2022-12-06T21:06:55.578Z,1.75
2022-12-06T21:09:24.471Z,1.82
2022-12-06T21:11:52.435Z,1.86
2022-12-06T21:14:20.506Z,1.77
2022-12-06T21:16:48.585Z,1.71
2022-12-06T21:19:19.633Z,1.70
2022-12-06T21:21:51.284Z,1.68
2022-12-06T21:24:21.385Z,1.63
2022-12-06T21:26:49.883Z,1.61
2022-12-06T21:29:30.152Z,1.58
2022-12-06T21:32:02.270Z,1.57
2022-12-06T21:34:30.283Z,1.63
2022-12-06T21:36:58.659Z,1.67
2022-12-06T21:39:26.524Z,1.63
2022-12-06T21:41:54.847Z,1.64
2022-12-06T21:44:24.000Z,1.57
2022-12-06T21:46:53.391Z,1.52
2022-12-06T21:49:21.527Z,1.63
2022-12-06T21:51:49.549Z,1.62
2022-12-06T21:54:17.415Z,1.63
2022-12-06T21:56:45.428Z,1.62
2022-12-06T21:59:13.379Z,1.61
2022-12-06T22:01:41.480Z,1.56
2022-12-06T22:04:09.345Z,1.47
2022-12-06T22:06:37.368Z,1.46
2022-12-06T22:09:06.582Z,1.45
2022-12-06T22:11:35.170Z,1.40
2022-12-06T22:14:05.041Z,1.40
2022-12-06T22:16:33.135Z,1.44
2022-12-06T22:19:01.730Z,1.41
2022-12-06T22:21:32.163Z,1.41
2022-12-06T22:24:00.633Z,1.43
2022-12-06T22:26:30.494Z,1.48
2022-12-06T22:29:00.065Z,1.50
2022-12-06T22:31:33.715Z,1.46
2022-12-06T22:34:03.161Z,1.47
2022-12-06T22:36:31.951Z,1.42
2022-12-06T22:39:02.413Z,1.46
2022-12-06T22:41:30.704Z,1.50
2022-12-06T22:44:01.147Z,1.51
2022-12-06T22:46:30.471Z,1.52
2022-12-06T22:48:59.898Z,1.54
2022-12-06T22:51:40.518Z,1.53
2022-12-06T22:54:13.244Z,1.58
2022-12-06T22:56:48.307Z,1.62
2022-12-06T22:59:17.533Z,1.61
2022-12-06T23:01:45.546Z,1.66
2022-12-06T23:04:13.752Z,1.67
2022-12-06T23:06:42.004Z,1.65
2022-12-06T23:09:14.382Z,1.65
2022-12-06T23:11:42.964Z,1.63
2022-12-06T23:14:11.749Z,1.64
2022-12-06T23:16:41.634Z,1.64
2022-12-06T23:19:09.821Z,1.64
2022-12-06T23:21:38.771Z,1.67
2022-12-06T23:24:09.670Z,1.70
2022-12-06T23:26:43.831Z,1.69
2022-12-06T23:29:12.799Z,1.67
2022-12-06T23:31:43.128Z,1.68
2022-12-06T23:34:16.194Z,1.65
2022-12-06T23:36:44.890Z,1.66
2022-12-06T23:39:13.253Z,1.66
2022-12-06T23:41:41.124Z,1.65
2022-12-06T23:44:11.146Z,1.63
2022-12-06T23:46:40.850Z,1.60
2022-12-06T23:49:16.923Z,1.64
2022-12-06T23:51:46.146Z,1.67
2022-12-06T23:54:16.859Z,1.69
2022-12-06T23:56:44.835Z,1.67
2022-12-06T23:59:14.845Z,1.64
